sensor_id;sensor_type;location;lat;lon;timestamp;pressure;altitude;pressure_sealevel;temperature;humidity
72636;BME280;60679;48.888;15.544;2023-07-29T00:01:34;95770.13;;;18.44;61.04
72636;BME280;60679;48.888;15.544;2023-07-29T00:04:00;95769.31;;;18.44;61.05
72636;BME280;60679;48.888;15.544;2023-07-29T00:06:26;95767.16;;;18.41;60.77
72636;BME280;60679;48.888;15.544;2023-07-29T00:08:52;95766.91;;;18.37;61.27
72636;BME280;60679;48.888;15.544;2023-07-29T00:11:17;95770.44;;;18.38;61.03
72636;BME280;60679;48.888;15.544;2023-07-29T00:13:43;95770.19;;;18.39;61.56
72636;BME280;60679;48.888;15.544;2023-07-29T00:16:09;95757.34;;;18.40;61.31
72636;BME280;60679;48.888;15.544;2023-07-29T00:18:35;95764.16;;;18.37;61.34
72636;BME280;60679;48.888;15.544;2023-07-29T00:21:00;95759.28;;;18.34;61.59
72636;BME280;60679;48.888;15.544;2023-07-29T00:23:26;95765.31;;;18.31;61.44
72636;BME280;60679;48.888;15.544;2023-07-29T00:25:51;95760.69;;;18.27;61.22
72636;BME280;60679;48.888;15.544;2023-07-29T00:28:16;95760.69;;;18.27;61.42
72636;BME280;60679;48.888;15.544;2023-07-29T00:30:42;95759.59;;;18.28;61.42
72636;BME280;60679;48.888;15.544;2023-07-29T00:33:07;95759.84;;;18.31;61.43
72636;BME280;60679;48.888;15.544;2023-07-29T00:35:34;95760.38;;;18.33;61.51
72636;BME280;60679;48.888;15.544;2023-07-29T00:37:59;95759.81;;;18.36;61.49
72636;BME280;60679;48.888;15.544;2023-07-29T00:40:28;95750.22;;;18.39;61.53
72636;BME280;60679;48.888;15.544;2023-07-29T00:42:56;95749.41;;;18.38;61.64
72636;BME280;60679;48.888;15.544;2023-07-29T00:45:24;95745.31;;;18.36;61.70
72636;BME280;60679;48.888;15.544;2023-07-29T00:47:51;95756.56;;;18.34;61.86
72636;BME280;60679;48.888;15.544;2023-07-29T00:50:17;95753.28;;;18.32;62.16
72636;BME280;60679;48.888;15.544;2023-07-29T00:52:42;95747.75;;;18.37;62.07
72636;BME280;60679;48.888;15.544;2023-07-29T00:55:08;95751.63;;;18.36;62.01
72636;BME280;60679;48.888;15.544;2023-07-29T00:57:35;95749.69;;;18.37;62.18
72636;BME280;60679;48.888;15.544;2023-07-29T01:00:01;95751.03;;;18.39;62.31
72636;BME280;60679;48.888;15.544;2023-07-29T01:02:27;95751.88;;;18.40;62.03
72636;BME280;60679;48.888;15.544;2023-07-29T01:04:57;95753.47;;;18.41;62.50
72636;BME280;60679;48.888;15.544;2023-07-29T01:07:47;95748.00;;;18.41;62.34
72636;BME280;60679;48.888;15.544;2023-07-29T01:10:19;95747.75;;;18.42;62.56
72636;BME280;60679;48.888;15.544;2023-07-29T01:15:28;95750.69;;;18.46;62.60
72636;BME280;60679;48.888;15.544;2023-07-29T01:18:02;95750.44;;;18.48;62.65
72636;BME280;60679;48.888;15.544;2023-07-29T01:20:33;95743.88;;;18.43;62.42
72636;BME280;60679;48.888;15.544;2023-07-29T01:22:58;95753.47;;;18.41;62.41
72636;BME280;60679;48.888;15.544;2023-07-29T01:25:24;95754.88;;;18.38;62.75
72636;BME280;60679;48.888;15.544;2023-07-29T01:27:51;95757.91;;;18.37;62.57
72636;BME280;60679;48.888;15.544;2023-07-29T01:30:22;95751.09;;;18.34;62.80
72636;BME280;60679;48.888;15.544;2023-07-29T01:33:39;95752.19;;;18.33;62.75
72636;BME280;60679;48.888;15.544;2023-07-29T01:35:45;95743.97;;;18.33;62.75
72636;BME280;60679;48.888;15.544;2023-07-29T01:38:18;95742.06;;;18.34;62.96
72636;BME280;60679;48.888;15.544;2023-07-29T01:40:50;95737.22;;;18.26;63.02
72636;BME280;60679;48.888;15.544;2023-07-29T01:43:17;95742.44;;;18.22;62.86
72636;BME280;60679;48.888;15.544;2023-07-29T01:46:05;95741.91;;;18.20;63.09
72636;BME280;60679;48.888;15.544;2023-07-29T01:48:31;95741.34;;;18.18;63.04
72636;BME280;60679;48.888;15.544;2023-07-29T01:50:57;95743.56;;;18.16;63.00
72636;BME280;60679;48.888;15.544;2023-07-29T01:53:23;95741.38;;;18.13;63.07
72636;BME280;60679;48.888;15.544;2023-07-29T01:55:50;95734.28;;;18.12;63.32
72636;BME280;60679;48.888;15.544;2023-07-29T01:58:15;95735.41;;;18.11;63.33
72636;BME280;60679;48.888;15.544;2023-07-29T02:00:40;95740.09;;;18.06;63.25
72636;BME280;60679;48.888;15.544;2023-07-29T02:03:06;95733.84;;;18.00;62.99
72636;BME280;60679;48.888;15.544;2023-07-29T02:05:31;95736.31;;;17.97;63.54
72636;BME280;60679;48.888;15.544;2023-07-29T02:07:57;95737.44;;;17.91;63.40
72636;BME280;60679;48.888;15.544;2023-07-29T02:10:23;95735.56;;;17.86;63.73
72636;BME280;60679;48.888;15.544;2023-07-29T02:12:48;95731.22;;;17.80;63.43
72636;BME280;60679;48.888;15.544;2023-07-29T02:15:13;95737.25;;;17.77;63.48
72636;BME280;60679;48.888;15.544;2023-07-29T02:17:42;95740.81;;;17.77;63.78
72636;BME280;60679;48.888;15.544;2023-07-29T02:20:08;95745.97;;;17.79;63.84
72636;BME280;60679;48.888;15.544;2023-07-29T02:22:34;95734.22;;;17.78;63.63
72636;BME280;60679;48.888;15.544;2023-07-29T02:24:59;95742.97;;;17.75;63.59
72636;BME280;60679;48.888;15.544;2023-07-29T02:27:26;95740.03;;;17.72;63.89
72636;BME280;60679;48.888;15.544;2023-07-29T02:29:52;95743.88;;;17.66;64.09
72636;BME280;60679;48.888;15.544;2023-07-29T02:32:21;95742.22;;;17.65;63.87
72636;BME280;60679;48.888;15.544;2023-07-29T02:34:46;95740.63;;;17.59;64.06
72636;BME280;60679;48.888;15.544;2023-07-29T02:37:12;95742.53;;;17.53;63.96
72636;BME280;60679;48.888;15.544;2023-07-29T02:39:37;95751.03;;;17.42;64.05
72636;BME280;60679;48.888;15.544;2023-07-29T02:42:05;95753.28;;;17.29;64.55
72636;BME280;60679;48.888;15.544;2023-07-29T02:44:30;95751.63;;;17.28;64.37
72636;BME280;60679;48.888;15.544;2023-07-29T02:46:56;95754.88;;;17.30;64.61
72636;BME280;60679;48.888;15.544;2023-07-29T02:49:22;95762.53;;;17.33;64.36
72636;BME280;60679;48.888;15.544;2023-07-29T02:51:48;95755.13;;;17.39;64.61
72636;BME280;60679;48.888;15.544;2023-07-29T02:54:13;95760.31;;;17.46;64.45
72636;BME280;60679;48.888;15.544;2023-07-29T02:56:39;95760.00;;;17.52;64.29
72636;BME280;60679;48.888;15.544;2023-07-29T02:59:04;95762.22;;;17.55;64.29
72636;BME280;60679;48.888;15.544;2023-07-29T03:01:32;95760.81;;;17.53;64.64
72636;BME280;60679;48.888;15.544;2023-07-29T03:03:58;95758.94;;;17.48;64.63
72636;BME280;60679;48.888;15.544;2023-07-29T03:06:23;95759.22;;;17.47;64.42
72636;BME280;60679;48.888;15.544;2023-07-29T03:08:49;95755.66;;;17.46;64.79
72636;BME280;60679;48.888;15.544;2023-07-29T03:11:16;95751.59;;;17.44;64.88
72636;BME280;60679;48.888;15.544;2023-07-29T03:13:42;95741.50;;;17.44;64.96
72636;BME280;60679;48.888;15.544;2023-07-29T03:16:12;95739.03;;;17.43;64.75
72636;BME280;60679;48.888;15.544;2023-07-29T03:18:39;95743.94;;;17.46;64.93
72636;BME280;60679;48.888;15.544;2023-07-29T03:21:05;95734.34;;;17.48;64.91
72636;BME280;60679;48.888;15.544;2023-07-29T03:23:32;95738.16;;;17.47;64.65
72636;BME280;60679;48.888;15.544;2023-07-29T03:26:02;95738.47;;;17.46;65.00
72636;BME280;60679;48.888;15.544;2023-07-29T03:28:36;95735.47;;;17.42;65.15
72636;BME280;60679;48.888;15.544;2023-07-29T03:31:04;95733.59;;;17.38;65.04
72636;BME280;60679;48.888;15.544;2023-07-29T03:33:30;95733.84;;;17.36;65.23
72636;BME280;60679;48.888;15.544;2023-07-29T03:35:55;95730.56;;;17.39;65.18
72636;BME280;60679;48.888;15.544;2023-07-29T03:38:21;95729.72;;;17.49;64.98
72636;BME280;60679;48.888;15.544;2023-07-29T03:40:46;95730.25;;;17.56;64.94
72636;BME280;60679;48.888;15.544;2023-07-29T03:43:12;95733.78;;;17.61;65.03
72636;BME280;60679;48.888;15.544;2023-07-29T03:45:41;95726.97;;;17.64;64.99
72636;BME280;60679;48.888;15.544;2023-07-29T03:48:06;95726.63;;;17.70;65.20
72636;BME280;60679;48.888;15.544;2023-07-29T03:50:34;95730.16;;;17.76;65.23
72636;BME280;60679;48.888;15.544;2023-07-29T03:53:03;95737.25;;;17.77;64.94
72636;BME280;60679;48.888;15.544;2023-07-29T03:55:29;95732.88;;;17.76;65.17
72636;BME280;60679;48.888;15.544;2023-07-29T03:58:01;95743.28;;;17.74;65.01
72636;BME280;60679;48.888;15.544;2023-07-29T04:00:27;95748.75;;;17.74;64.87
72636;BME280;60679;48.888;15.544;2023-07-29T04:02:52;95750.91;;;17.77;65.01
72636;BME280;60679;48.888;15.544;2023-07-29T04:05:18;95742.69;;;17.82;64.84
72636;BME280;60679;48.888;15.544;2023-07-29T04:07:44;95750.31;;;17.85;64.98
72636;BME280;60679;48.888;15.544;2023-07-29T04:10:10;95745.66;;;17.85;64.81
72636;BME280;60679;48.888;15.544;2023-07-29T04:12:35;95749.50;;;17.84;65.25
72636;BME280;60679;48.888;15.544;2023-07-29T04:15:07;95747.84;;;17.88;65.01
72636;BME280;60679;48.888;15.544;2023-07-29T04:17:32;95737.75;;;17.89;64.95
72636;BME280;60679;48.888;15.544;2023-07-29T04:19:58;95745.38;;;17.92;65.04
72636;BME280;60679;48.888;15.544;2023-07-29T04:22:23;95743.16;;;17.94;65.09
72636;BME280;60679;48.888;15.544;2023-07-29T04:24:52;95749.13;;;18.01;64.86
72636;BME280;60679;48.888;15.544;2023-07-29T04:27:17;95752.38;;;18.08;64.59
72636;BME280;60679;48.888;15.544;2023-07-29T04:29:43;95754.75;;;18.15;64.54
72636;BME280;60679;48.888;15.544;2023-07-29T04:32:08;95750.94;;;18.16;64.67
72636;BME280;60679;48.888;15.544;2023-07-29T04:34:33;95750.66;;;18.17;64.57
72636;BME280;60679;48.888;15.544;2023-07-29T04:36:59;95748.16;;;18.21;64.46
72636;BME280;60679;48.888;15.544;2023-07-29T04:39:24;95748.94;;;18.26;64.29
72636;BME280;60679;48.888;15.544;2023-07-29T04:41:50;95749.97;;;18.35;64.47
72636;BME280;60679;48.888;15.544;2023-07-29T04:44:15;95748.31;;;18.39;64.22
72636;BME280;60679;48.888;15.544;2023-07-29T04:46:44;95744.44;;;18.40;64.19
72636;BME280;60679;48.888;15.544;2023-07-29T04:49:10;95752.91;;;18.44;64.26
72636;BME280;60679;48.888;15.544;2023-07-29T04:51:35;95755.63;;;18.49;64.38
72636;BME280;60679;48.888;15.544;2023-07-29T04:54:02;95750.41;;;18.53;64.01
72636;BME280;60679;48.888;15.544;2023-07-29T04:56:28;95757.75;;;18.57;64.46
72636;BME280;60679;48.888;15.544;2023-07-29T04:58:53;95758.06;;;18.56;64.34
72636;BME280;60679;48.888;15.544;2023-07-29T05:01:19;95758.63;;;18.53;64.04
72636;BME280;60679;48.888;15.544;2023-07-29T05:03:45;95764.91;;;18.53;64.37
72636;BME280;60679;48.888;15.544;2023-07-29T05:06:10;95764.03;;;18.58;64.08
72636;BME280;60679;48.888;15.544;2023-07-29T05:08:36;95768.38;;;18.64;63.82
72636;BME280;60679;48.888;15.544;2023-07-29T05:11:04;95782.81;;;18.69;63.76
72636;BME280;60679;48.888;15.544;2023-07-29T05:13:30;95773.47;;;18.75;64.07
72636;BME280;60679;48.888;15.544;2023-07-29T05:15:55;95779.47;;;18.77;63.97
72636;BME280;60679;48.888;15.544;2023-07-29T05:18:21;95781.94;;;18.79;63.78
72636;BME280;60679;48.888;15.544;2023-07-29T05:20:47;95788.53;;;18.73;64.17
72636;BME280;60679;48.888;15.544;2023-07-29T05:23:12;95786.91;;;18.72;64.21
72636;BME280;60679;48.888;15.544;2023-07-29T05:25:38;95795.09;;;18.77;63.99
72636;BME280;60679;48.888;15.544;2023-07-29T05:28:03;95795.03;;;18.82;63.73
72636;BME280;60679;48.888;15.544;2023-07-29T05:30:30;95798.53;;;18.87;63.38
72636;BME280;60679;48.888;15.544;2023-07-29T05:33:03;95803.13;;;18.92;63.84
72636;BME280;60679;48.888;15.544;2023-07-29T05:35:38;95795.19;;;18.95;63.81
72636;BME280;60679;48.888;15.544;2023-07-29T05:38:03;95789.38;;;19.02;63.44
72636;BME280;60679;48.888;15.544;2023-07-29T05:40:31;95789.56;;;19.11;63.22
72636;BME280;60679;48.888;15.544;2023-07-29T05:42:56;95795.50;;;19.18;63.51
72636;BME280;60679;48.888;15.544;2023-07-29T05:45:22;95803.19;;;19.16;63.14
72636;BME280;60679;48.888;15.544;2023-07-29T05:47:47;95805.06;;;19.20;63.57
72636;BME280;60679;48.888;15.544;2023-07-29T05:50:13;95806.13;;;19.24;63.33
72636;BME280;60679;48.888;15.544;2023-07-29T05:52:38;95805.72;;;19.36;63.20
72636;BME280;60679;48.888;15.544;2023-07-29T05:55:05;95799.06;;;19.47;63.10
72636;BME280;60679;48.888;15.544;2023-07-29T05:57:31;95803.84;;;19.60;62.52
72636;BME280;60679;48.888;15.544;2023-07-29T05:59:56;95803.13;;;19.73;62.38
72636;BME280;60679;48.888;15.544;2023-07-29T06:02:22;95804.44;;;19.99;62.04
72636;BME280;60679;48.888;15.544;2023-07-29T06:04:47;95802.47;;;20.24;61.94
72636;BME280;60679;48.888;15.544;2023-07-29T06:07:13;95805.91;;;20.53;61.54
72636;BME280;60679;48.888;15.544;2023-07-29T06:09:39;95804.81;;;20.86;60.73
72636;BME280;60679;48.888;15.544;2023-07-29T06:12:05;95804.56;;;21.01;61.01
72636;BME280;60679;48.888;15.544;2023-07-29T06:14:31;95797.97;;;21.02;60.77
72636;BME280;60679;48.888;15.544;2023-07-29T06:16:56;95800.69;;;21.21;60.50
72636;BME280;60679;48.888;15.544;2023-07-29T06:19:22;95807.00;;;21.21;60.68
72636;BME280;60679;48.888;15.544;2023-07-29T06:21:48;95801.72;;;21.25;60.75
72636;BME280;60679;48.888;15.544;2023-07-29T06:24:13;95794.19;;;21.31;60.42
72636;BME280;60679;48.888;15.544;2023-07-29T06:26:39;95801.72;;;21.25;60.56
72636;BME280;60679;48.888;15.544;2023-07-29T06:29:04;95806.47;;;21.19;60.48
72636;BME280;60679;48.888;15.544;2023-07-29T06:31:30;95797.31;;;21.24;60.82
72636;BME280;60679;48.888;15.544;2023-07-29T06:33:58;95803.03;;;21.27;60.81
72636;BME280;60679;48.888;15.544;2023-07-29T06:36:23;95806.38;;;21.11;61.04
72636;BME280;60679;48.888;15.544;2023-07-29T06:38:49;95808.50;;;20.95;61.23
72636;BME280;60679;48.888;15.544;2023-07-29T06:41:14;95804.03;;;20.67;61.74
72636;BME280;60679;48.888;15.544;2023-07-29T06:43:40;95798.84;;;20.47;61.86
72636;BME280;60679;48.888;15.544;2023-07-29T06:46:05;95804.28;;;20.33;61.89
72636;BME280;60679;48.888;15.544;2023-07-29T06:48:31;95809.03;;;20.28;61.91
72636;BME280;60679;48.888;15.544;2023-07-29T06:50:56;95805.19;;;20.29;62.22
72636;BME280;60679;48.888;15.544;2023-07-29T06:53:26;95804.88;;;20.49;61.65
72636;BME280;60679;48.888;15.544;2023-07-29T06:55:52;95805.81;;;20.58;61.58
72636;BME280;60679;48.888;15.544;2023-07-29T06:58:17;95802.34;;;20.71;61.19
72636;BME280;60679;48.888;15.544;2023-07-29T07:00:42;95806.59;;;20.96;61.02
72636;BME280;60679;48.888;15.544;2023-07-29T07:03:08;95804.88;;;21.46;60.43
72636;BME280;60679;48.888;15.544;2023-07-29T07:05:33;95797.84;;;22.21;59.32
72636;BME280;60679;48.888;15.544;2023-07-29T07:07:59;95794.72;;;22.64;58.33
72636;BME280;60679;48.888;15.544;2023-07-29T07:10:24;95789.53;;;23.07;57.48
72636;BME280;60679;48.888;15.544;2023-07-29T07:12:50;95782.88;;;23.61;56.90
72636;BME280;60679;48.888;15.544;2023-07-29T07:15:16;95786.06;;;23.54;57.18
72636;BME280;60679;48.888;15.544;2023-07-29T07:17:41;95787.84;;;23.19;57.66
72636;BME280;60679;48.888;15.544;2023-07-29T07:20:07;95785.91;;;23.90;56.19
72636;BME280;60679;48.888;15.544;2023-07-29T07:22:32;95786.50;;;24.26;56.24
72636;BME280;60679;48.888;15.544;2023-07-29T07:24:58;95774.94;;;24.07;56.54
72636;BME280;60679;48.888;15.544;2023-07-29T07:27:23;95782.69;;;23.57;57.25
72636;BME280;60679;48.888;15.544;2023-07-29T07:29:49;95788.50;;;23.25;57.30
72636;BME280;60679;48.888;15.544;2023-07-29T07:32:15;95792.00;;;22.86;58.20
72636;BME280;60679;48.888;15.544;2023-07-29T07:34:40;95788.03;;;22.78;57.87
72636;BME280;60679;48.888;15.544;2023-07-29T07:37:06;95789.03;;;23.35;57.03
72636;BME280;60679;48.888;15.544;2023-07-29T07:39:32;95790.97;;;23.57;56.85
72636;BME280;60679;48.888;15.544;2023-07-29T07:42:00;95792.66;;;23.14;57.63
72636;BME280;60679;48.888;15.544;2023-07-29T07:44:41;95793.56;;;23.31;57.38
72636;BME280;60679;48.888;15.544;2023-07-29T07:47:09;95799.97;;;23.80;56.50
72636;BME280;60679;48.888;15.544;2023-07-29T07:49:35;95796.63;;;24.56;55.02
72636;BME280;60679;48.888;15.544;2023-07-29T07:52:00;95803.44;;;25.19;54.01
72636;BME280;60679;48.888;15.544;2023-07-29T07:54:26;95808.34;;;25.77;53.25
72636;BME280;60679;48.888;15.544;2023-07-29T07:56:57;95804.16;;;25.71;53.48
72636;BME280;60679;48.888;15.544;2023-07-29T07:59:25;95799.88;;;24.93;54.39
72636;BME280;60679;48.888;15.544;2023-07-29T08:01:51;95800.16;;;24.40;54.97
72636;BME280;60679;48.888;15.544;2023-07-29T08:04:17;95793.84;;;24.39;54.95
72636;BME280;60679;48.888;15.544;2023-07-29T08:06:46;95798.41;;;24.52;55.53
72636;BME280;60679;48.888;15.544;2023-07-29T08:09:11;95790.25;;;23.82;56.08
72636;BME280;60679;48.888;15.544;2023-07-29T08:11:36;95789.22;;;23.61;56.21
72636;BME280;60679;48.888;15.544;2023-07-29T08:14:02;95778.78;;;23.49;56.34
72636;BME280;60679;48.888;15.544;2023-07-29T08:16:27;95777.88;;;23.71;56.03
72636;BME280;60679;48.888;15.544;2023-07-29T08:18:53;95775.03;;;23.85;55.73
72636;BME280;60679;48.888;15.544;2023-07-29T08:21:21;95767.53;;;23.85;55.65
72636;BME280;60679;48.888;15.544;2023-07-29T08:23:47;95761.66;;;24.18;55.30
72636;BME280;60679;48.888;15.544;2023-07-29T08:26:12;95761.69;;;24.43;55.11
72636;BME280;60679;48.888;15.544;2023-07-29T08:28:39;95753.06;;;24.70;54.89
72636;BME280;60679;48.888;15.544;2023-07-29T08:31:05;95745.94;;;24.95;54.31
72636;BME280;60679;48.888;15.544;2023-07-29T08:33:31;95754.72;;;25.06;54.12
72636;BME280;60679;48.888;15.544;2023-07-29T08:35:59;95739.38;;;25.25;53.74
72636;BME280;60679;48.888;15.544;2023-07-29T08:38:24;95754.69;;;25.69;53.10
72636;BME280;60679;48.888;15.544;2023-07-29T08:41:04;95742.25;;;26.13;52.30
72636;BME280;60679;48.888;15.544;2023-07-29T08:43:32;95738.41;;;26.56;51.76
72636;BME280;60679;48.888;15.544;2023-07-29T08:46:01;95748.34;;;27.10;51.04
72636;BME280;60679;48.888;15.544;2023-07-29T08:48:43;95742.94;;;27.14;50.83
72636;BME280;60679;48.888;15.544;2023-07-29T08:51:12;95741.06;;;27.06;50.60
72636;BME280;60679;48.888;15.544;2023-07-29T08:53:38;95733.59;;;27.75;49.92
72636;BME280;60679;48.888;15.544;2023-07-29T08:56:04;95731.59;;;28.48;48.33
72636;BME280;60679;48.888;15.544;2023-07-29T08:58:31;95731.34;;;29.49;46.28
72636;BME280;60679;48.888;15.544;2023-07-29T09:00:56;95722.00;;;31.08;43.91
72636;BME280;60679;48.888;15.544;2023-07-29T09:03:22;95724.47;;;31.97;42.67
72636;BME280;60679;48.888;15.544;2023-07-29T09:05:48;95718.56;;;33.44;40.53
72636;BME280;60679;48.888;15.544;2023-07-29T09:08:14;95725.63;;;34.08;38.92
72636;BME280;60679;48.888;15.544;2023-07-29T09:10:40;95725.78;;;34.84;37.99
72636;BME280;60679;48.888;15.544;2023-07-29T09:13:06;95720.56;;;35.89;37.05
72636;BME280;60679;48.888;15.544;2023-07-29T09:15:35;95715.44;;;37.60;35.36
72636;BME280;60679;48.888;15.544;2023-07-29T09:18:09;95726.28;;;38.23;34.76
72636;BME280;60679;48.888;15.544;2023-07-29T09:20:38;95725.41;;;38.78;33.87
72636;BME280;60679;48.888;15.544;2023-07-29T09:23:07;95722.31;;;40.50;31.72
72636;BME280;60679;48.888;15.544;2023-07-29T09:25:34;95708.81;;;37.04;35.83
72636;BME280;60679;48.888;15.544;2023-07-29T09:28:00;95716.47;;;35.62;37.93
72636;BME280;60679;48.888;15.544;2023-07-29T09:30:26;95714.16;;;36.31;36.63
72636;BME280;60679;48.888;15.544;2023-07-29T09:32:56;95718.47;;;37.93;34.15
72636;BME280;60679;48.888;15.544;2023-07-29T09:35:21;95707.72;;;36.34;36.20
72636;BME280;60679;48.888;15.544;2023-07-29T09:37:47;95708.63;;;37.46;33.86
72636;BME280;60679;48.888;15.544;2023-07-29T09:40:17;95706.50;;;38.27;32.75
72636;BME280;60679;48.888;15.544;2023-07-29T09:42:53;95694.63;;;41.79;28.98
72636;BME280;60679;48.888;15.544;2023-07-29T09:45:20;95703.84;;;43.41;28.15
72636;BME280;60679;48.888;15.544;2023-07-29T09:47:46;95702.44;;;36.79;35.38
72636;BME280;60679;48.888;15.544;2023-07-29T09:50:12;95708.34;;;40.36;29.71
72636;BME280;60679;48.888;15.544;2023-07-29T09:52:38;95696.25;;;41.21;28.97
72636;BME280;60679;48.888;15.544;2023-07-29T09:55:03;95702.28;;;42.79;27.75
72636;BME280;60679;48.888;15.544;2023-07-29T09:57:30;95703.53;;;43.64;27.04
72636;BME280;60679;48.888;15.544;2023-07-29T09:59:56;95696.19;;;44.43;25.96
72636;BME280;60679;48.888;15.544;2023-07-29T10:02:22;95696.56;;;44.92;24.75
72636;BME280;60679;48.888;15.544;2023-07-29T10:04:48;95690.91;;;46.18;23.98
72636;BME280;60679;48.888;15.544;2023-07-29T10:07:15;95693.69;;;47.34;23.43
72636;BME280;60679;48.888;15.544;2023-07-29T10:09:41;95679.50;;;49.22;22.44
72636;BME280;60679;48.888;15.544;2023-07-29T10:12:09;95680.00;;;50.03;21.48
72636;BME280;60679;48.888;15.544;2023-07-29T10:14:38;95676.44;;;42.90;27.75
72636;BME280;60679;48.888;15.544;2023-07-29T10:17:05;95669.75;;;38.75;31.77
72636;BME280;60679;48.888;15.544;2023-07-29T10:19:31;95665.69;;;37.87;32.74
72636;BME280;60679;48.888;15.544;2023-07-29T10:21:59;95662.75;;;36.06;34.12
72636;BME280;60679;48.888;15.544;2023-07-29T10:24:29;95648.00;;;44.10;24.57
72636;BME280;60679;48.888;15.544;2023-07-29T10:27:01;95659.00;;;48.11;21.84
72636;BME280;60679;48.888;15.544;2023-07-29T10:29:38;95658.28;;;47.14;22.14
72636;BME280;60679;48.888;15.544;2023-07-29T10:32:04;95649.38;;;49.41;20.83
72636;BME280;60679;48.888;15.544;2023-07-29T10:34:32;95644.97;;;50.89;19.50
72636;BME280;60679;48.888;15.544;2023-07-29T10:36:59;95641.81;;;46.51;23.46
72636;BME280;60679;48.888;15.544;2023-07-29T10:39:25;95642.16;;;47.43;22.91
72636;BME280;60679;48.888;15.544;2023-07-29T10:42:02;95639.97;;;40.80;28.83
72636;BME280;60679;48.888;15.544;2023-07-29T10:47:14;95624.44;;;35.10;33.91
72636;BME280;60679;48.888;15.544;2023-07-29T10:49:44;95627.91;;;41.35;25.70
72636;BME280;60679;48.888;15.544;2023-07-29T10:52:31;95616.53;;;42.52;25.15
72636;BME280;60679;48.888;15.544;2023-07-29T10:54:57;95626.19;;;38.31;29.51
72636;BME280;60679;48.888;15.544;2023-07-29T10:57:39;95622.28;;;46.67;21.02
72636;BME280;60679;48.888;15.544;2023-07-29T11:00:07;95636.63;;;50.56;17.83
72636;BME280;60679;48.888;15.544;2023-07-29T11:02:37;95621.81;;;50.77;18.51
72636;BME280;60679;48.888;15.544;2023-07-29T11:05:16;95616.53;;;48.33;19.87
72636;BME280;60679;48.888;15.544;2023-07-29T11:07:46;95613.53;;;45.64;22.67
72636;BME280;60679;48.888;15.544;2023-07-29T11:10:13;95609.78;;;38.60;29.05
72636;BME280;60679;48.888;15.544;2023-07-29T11:12:41;95607.19;;;34.25;33.19
72636;BME280;60679;48.888;15.544;2023-07-29T11:15:28;95586.03;;;33.33;34.11
72636;BME280;60679;48.888;15.544;2023-07-29T11:17:59;95593.41;;;33.11;34.03
72636;BME280;60679;48.888;15.544;2023-07-29T11:20:29;95595.50;;;32.21;34.44
72636;BME280;60679;48.888;15.544;2023-07-29T11:22:57;95600.66;;;30.99;35.74
72636;BME280;60679;48.888;15.544;2023-07-29T11:25:24;95600.00;;;30.86;35.47
72636;BME280;60679;48.888;15.544;2023-07-29T11:27:57;95596.75;;;31.71;34.04
72636;BME280;60679;48.888;15.544;2023-07-29T11:30:23;95603.94;;;30.62;35.15
72636;BME280;60679;48.888;15.544;2023-07-29T11:32:53;95588.84;;;30.86;34.86
72636;BME280;60679;48.888;15.544;2023-07-29T11:35:20;95605.72;;;30.74;34.84
72636;BME280;60679;48.888;15.544;2023-07-29T11:37:47;95605.72;;;30.74;35.01
72636;BME280;60679;48.888;15.544;2023-07-29T11:40:22;95604.91;;;31.83;33.09
72636;BME280;60679;48.888;15.544;2023-07-29T11:42:50;95605.28;;;39.00;25.12
72636;BME280;60679;48.888;15.544;2023-07-29T11:45:16;95610.50;;;44.37;21.27
72636;BME280;60679;48.888;15.544;2023-07-29T11:47:42;95599.94;;;47.62;19.55
72636;BME280;60679;48.888;15.544;2023-07-29T11:50:09;95608.44;;;39.36;27.41
72636;BME280;60679;48.888;15.544;2023-07-29T11:52:43;95598.59;;;32.42;34.96
72636;BME280;60679;48.888;15.544;2023-07-29T11:55:09;95620.50;;;30.01;37.34
72636;BME280;60679;48.888;15.544;2023-07-29T11:57:36;95643.47;;;28.89;38.11
72636;BME280;60679;48.888;15.544;2023-07-29T12:00:10;95646.97;;;27.82;38.63
72636;BME280;60679;48.888;15.544;2023-07-29T12:02:42;95649.47;;;28.63;37.58
72636;BME280;60679;48.888;15.544;2023-07-29T12:05:10;95649.25;;;30.05;35.75
72636;BME280;60679;48.888;15.544;2023-07-29T12:07:37;95662.00;;;34.15;30.80
72636;BME280;60679;48.888;15.544;2023-07-29T12:10:03;95649.47;;;40.01;25.47
72636;BME280;60679;48.888;15.544;2023-07-29T12:12:29;95648.97;;;41.90;23.81
72636;BME280;60679;48.888;15.544;2023-07-29T12:14:55;95652.25;;;45.00;21.31
72636;BME280;60679;48.888;15.544;2023-07-29T12:17:20;95662.09;;;43.22;23.14
72636;BME280;60679;48.888;15.544;2023-07-29T12:19:46;95676.16;;;40.73;25.75
72636;BME280;60679;48.888;15.544;2023-07-29T12:22:11;95677.38;;;35.11;32.00
72636;BME280;60679;48.888;15.544;2023-07-29T12:24:39;95678.84;;;31.44;36.59
72636;BME280;60679;48.888;15.544;2023-07-29T12:27:13;95678.00;;;29.62;38.11
72636;BME280;60679;48.888;15.544;2023-07-29T12:29:40;95673.53;;;30.24;36.45
72636;BME280;60679;48.888;15.544;2023-07-29T12:32:07;95666.91;;;34.94;30.10
72636;BME280;60679;48.888;15.544;2023-07-29T12:34:33;95667.91;;;38.13;27.41
72636;BME280;60679;48.888;15.544;2023-07-29T12:37:02;95661.72;;;41.98;24.37
72636;BME280;60679;48.888;15.544;2023-07-29T12:39:31;95668.44;;;42.56;23.85
72636;BME280;60679;48.888;15.544;2023-07-29T12:41:58;95663.69;;;45.65;21.63
72636;BME280;60679;48.888;15.544;2023-07-29T12:44:25;95667.59;;;46.20;21.54
72636;BME280;60679;48.888;15.544;2023-07-29T12:46:51;95662.16;;;46.62;21.34
72636;BME280;60679;48.888;15.544;2023-07-29T12:49:17;95647.31;;;43.15;24.37
72636;BME280;60679;48.888;15.544;2023-07-29T12:51:43;95654.69;;;39.18;28.16
72636;BME280;60679;48.888;15.544;2023-07-29T12:54:09;95663.38;;;35.25;32.07
72636;BME280;60679;48.888;15.544;2023-07-29T12:56:34;95663.09;;;32.86;34.31